Orbital elements of FENGYUN 1C DEB
| Launched | 9 May 1999 |
| Flight ended | – |
| Launch site | Taiyuan Space Center, PRC |
| Owner | People's Republic of China |
| NORAD ID | 35154 |
| Date fetched |
Epoch osculation |
Inc. [°] |
Ecc. | RA asc node [hr] |
Arg Peri. [°] |
Mean anom [°] |
Mean motion [rev/day] |
Abs. mag |
| Date fetched |
Epoch osculation |
Inc. [°] |
Ecc. | RA asc node [hr] |
Arg Peri. [°] |
Mean anom [°] |
Mean motion [rev/day] |
Abs. mag |
| 2026 May 08 17:57 | 2026 May 04 02:01:37 | 99.4382 | 0.01781 | 17.3099 | 1.9030 | 358.2783 | 14.19216 | – |
| 2026 May 07 17:58 | 2026 May 04 02:01:37 | 99.4382 | 0.01781 | 17.3099 | 1.9030 | 358.2783 | 14.19216 | – |
| 2026 May 06 17:57 | 2026 May 04 02:01:37 | 99.4382 | 0.01781 | 17.3099 | 1.9030 | 358.2783 | 14.19216 | – |
| 2026 May 05 17:57 | 2026 May 04 02:01:37 | 99.4382 | 0.01781 | 17.3099 | 1.9030 | 358.2783 | 14.19216 | – |
| 2026 May 04 17:57 | 2026 Apr 30 15:07:12 | 99.4375 | 0.01782 | 17.0646 | 11.6172 | 358.2783 | 14.19216 | – |
| 2026 May 03 17:57 | 2026 Apr 30 15:07:12 | 99.4375 | 0.01782 | 17.0646 | 11.6172 | 358.2783 | 14.19216 | – |
| 2026 May 02 17:57 | 2026 Apr 30 15:07:12 | 99.4375 | 0.01782 | 17.0646 | 11.6172 | 358.2783 | 14.19216 | – |
| 2026 May 01 17:56 | 2026 Apr 30 15:07:12 | 99.4375 | 0.01782 | 17.0646 | 11.6172 | 358.2783 | 14.19216 | – |
| 2026 Apr 30 17:56 | 2026 Apr 30 15:07:12 | 99.4375 | 0.01782 | 17.0646 | 11.6172 | 358.2783 | 14.19216 | – |
| 2026 Apr 29 17:57 | 2026 Apr 22 14:14:01 | 99.4363 | 0.01786 | 16.4939 | 34.2271 | 358.2783 | 14.19216 | – |
| 2026 Apr 28 17:56 | 2026 Apr 22 14:14:01 | 99.4363 | 0.01786 | 16.4939 | 34.2271 | 358.2783 | 14.19216 | – |
| 2026 Apr 27 17:58 | 2026 Apr 22 14:14:01 | 99.4363 | 0.01786 | 16.4939 | 34.2271 | 358.2783 | 14.19216 | – |
| 2026 Apr 26 17:58 | 2026 Apr 22 14:14:01 | 99.4363 | 0.01786 | 16.4939 | 34.2271 | 358.2783 | 14.19216 | – |
| 2026 Apr 25 17:58 | 2026 Apr 22 14:14:01 | 99.4363 | 0.01786 | 16.4939 | 34.2271 | 358.2783 | 14.19216 | – |
| 2026 Apr 24 17:59 | 2026 Apr 22 14:14:01 | 99.4363 | 0.01786 | 16.4939 | 34.2271 | 358.2783 | 14.19216 | – |
| 2026 Apr 23 17:57 | 2026 Apr 15 14:43:31 | 99.4340 | 0.01789 | 15.9984 | 53.8334 | 358.2783 | 14.19216 | – |
| 2026 Apr 22 17:57 | 2026 Apr 15 14:43:31 | 99.4340 | 0.01789 | 15.9984 | 53.8334 | 358.2783 | 14.19216 | – |
| 2026 Apr 21 17:57 | 2026 Apr 15 14:43:31 | 99.4340 | 0.01789 | 15.9984 | 53.8334 | 358.2783 | 14.19216 | – |
| 2026 Apr 20 17:57 | 2026 Apr 15 14:43:31 | 99.4340 | 0.01789 | 15.9984 | 53.8334 | 358.2783 | 14.19216 | – |
| 2026 Apr 19 17:58 | 2026 Apr 15 14:43:31 | 99.4340 | 0.01789 | 15.9984 | 53.8334 | 358.2783 | 14.19216 | – |
| 2026 Apr 18 17:56 | 2026 Apr 11 02:26:11 | 99.4341 | 0.01791 | 15.6782 | 66.5064 | 358.2783 | 14.19216 | – |
| 2026 Apr 16 17:57 | 2026 Apr 11 02:26:11 | 99.4341 | 0.01791 | 15.6782 | 66.5064 | 358.2783 | 14.19216 | – |
| 2026 Apr 14 17:57 | 2026 Apr 11 02:26:11 | 99.4341 | 0.01791 | 15.6782 | 66.5064 | 358.2783 | 14.19216 | – |
| 2026 Apr 13 17:57 | 2026 Apr 11 02:26:11 | 99.4341 | 0.01791 | 15.6782 | 66.5064 | 358.2783 | 14.19216 | – |
| 2026 Apr 12 17:57 | 2026 Apr 03 15:04:51 | 99.4323 | 0.01794 | 15.1479 | 87.4512 | 358.2783 | 14.19216 | – |
| 2026 Apr 11 17:57 | 2026 Apr 03 15:04:51 | 99.4323 | 0.01794 | 15.1479 | 87.4512 | 358.2783 | 14.19216 | – |